Accueil
METAR-TAF:

METAR-TAF

Aéroports :

Base aérienne de Nörvenich

Nörvenich, Allemagne

latitude: 50-50N, longitude: 006-40E, altitude: 118 m

Observation

Le bulletin a été fait il y a 36 minutes, à 21:20 UTC
Vent 4 kt de ouest
Température 17°C
Humidité 68%
Pression 1026 hPa
Visibilité 10 km ou plus

METAR: ETNN 222120Z 27004KT 9999 17/11 Q1026 BLU+

Heure: 23:56 (21:56 UTC)

Prévision

Le bulletin a été fait il y a 6 heures et 41 minutes, à 15:15 UTC
Prévision valable du 22 à 15 UTC au 22 à 23 UTC
Vent 3 kt de direction variable
Visibilité: 1530 m
Quelques nuages à une hauteur de 6000 ft
Nuages épars à une hauteur de 32000 ft

TAF: ETNN 221515Z 2215/2223 VRB03KT 9999 NSW FEW060 SCT320 CANCEL 1530 BY ETGL

Observations et prévisions météorologiques de plus de 4000 aéroports (messages METAR et TAF).

Les stations disponibles sont représentées par des disques jaunes et rouges sur la carte.

Passer la souris dessus pour voir le nom de la station.

Cliquer dessus pour voir les observations et prévisions météorologiques.

Pour changer de carte: cliquez sur les boutons verts avec une croix noire pour zoomer, sur le bouton vert avec un tiret pour effectuer un zoom arrière, ou sur les flèches vertes pour les cartes adjacentes.


METAR-TAF: